sensor_id;sensor_type;location;lat;lon;timestamp;temperature;humidity
24560;DHT22;12727;49.934;8.656;2022-12-10T00:02:05;0.90;99.90
24560;DHT22;12727;49.934;8.656;2022-12-10T00:04:30;0.90;99.90
24560;DHT22;12727;49.934;8.656;2022-12-10T00:06:56;0.90;99.90
24560;DHT22;12727;49.934;8.656;2022-12-10T00:09:21;0.90;99.90
24560;DHT22;12727;49.934;8.656;2022-12-10T00:11:47;0.80;99.90
24560;DHT22;12727;49.934;8.656;2022-12-10T00:14:13;0.80;99.90
24560;DHT22;12727;49.934;8.656;2022-12-10T00:16:41;0.80;99.90
24560;DHT22;12727;49.934;8.656;2022-12-10T00:19:07;0.80;99.90
24560;DHT22;12727;49.934;8.656;2022-12-10T00:21:35;0.80;99.90
24560;DHT22;12727;49.934;8.656;2022-12-10T00:24:01;0.80;99.90
24560;DHT22;12727;49.934;8.656;2022-12-10T00:26:32;0.80;99.90
24560;DHT22;12727;49.934;8.656;2022-12-10T00:29:00;0.70;99.90
24560;DHT22;12727;49.934;8.656;2022-12-10T00:31:29;0.80;99.90
24560;DHT22;12727;49.934;8.656;2022-12-10T00:33:56;0.70;99.90
24560;DHT22;12727;49.934;8.656;2022-12-10T00:36:25;0.70;99.90
24560;DHT22;12727;49.934;8.656;2022-12-10T00:38:51;0.70;99.90
24560;DHT22;12727;49.934;8.656;2022-12-10T00:41:17;0.70;99.90
24560;DHT22;12727;49.934;8.656;2022-12-10T00:43:43;0.70;99.90
24560;DHT22;12727;49.934;8.656;2022-12-10T00:46:09;0.70;99.90
24560;DHT22;12727;49.934;8.656;2022-12-10T00:48:35;0.70;99.90
24560;DHT22;12727;49.934;8.656;2022-12-10T00:51:09;0.70;99.90
24560;DHT22;12727;49.934;8.656;2022-12-10T00:53:37;0.70;99.90
24560;DHT22;12727;49.934;8.656;2022-12-10T00:56:04;0.70;99.90
24560;DHT22;12727;49.934;8.656;2022-12-10T00:58:31;0.60;99.90
24560;DHT22;12727;49.934;8.656;2022-12-10T01:04:00;0.60;99.90
24560;DHT22;12727;49.934;8.656;2022-12-10T01:06:31;0.60;99.90
24560;DHT22;12727;49.934;8.656;2022-12-10T01:08:59;0.60;99.90
24560;DHT22;12727;49.934;8.656;2022-12-10T01:11:29;0.60;99.90
24560;DHT22;12727;49.934;8.656;2022-12-10T01:13:55;0.60;99.90
24560;DHT22;12727;49.934;8.656;2022-12-10T01:16:22;0.60;99.90
24560;DHT22;12727;49.934;8.656;2022-12-10T01:18:48;0.60;99.90
24560;DHT22;12727;49.934;8.656;2022-12-10T01:21:17;0.50;99.90
24560;DHT22;12727;49.934;8.656;2022-12-10T01:23:45;0.60;99.90
24560;DHT22;12727;49.934;8.656;2022-12-10T01:26:14;0.60;99.90
24560;DHT22;12727;49.934;8.656;2022-12-10T01:28:41;0.60;99.90
24560;DHT22;12727;49.934;8.656;2022-12-10T01:31:12;0.50;99.90
24560;DHT22;12727;49.934;8.656;2022-12-10T01:33:39;0.50;99.90
24560;DHT22;12727;49.934;8.656;2022-12-10T01:36:08;0.50;99.90
24560;DHT22;12727;49.934;8.656;2022-12-10T01:38:34;0.50;99.90
24560;DHT22;12727;49.934;8.656;2022-12-10T01:41:00;0.50;99.90
24560;DHT22;12727;49.934;8.656;2022-12-10T01:43:26;0.50;99.90
24560;DHT22;12727;49.934;8.656;2022-12-10T01:45:52;0.50;99.90
24560;DHT22;12727;49.934;8.656;2022-12-10T01:48:19;0.50;99.90
24560;DHT22;12727;49.934;8.656;2022-12-10T01:50:44;0.50;99.90
24560;DHT22;12727;49.934;8.656;2022-12-10T01:53:12;0.50;99.90
24560;DHT22;12727;49.934;8.656;2022-12-10T01:55:50;0.50;99.90
24560;DHT22;12727;49.934;8.656;2022-12-10T01:58:17;0.50;99.90
24560;DHT22;12727;49.934;8.656;2022-12-10T02:03:40;0.50;99.90
24560;DHT22;12727;49.934;8.656;2022-12-10T02:06:22;0.50;99.90
24560;DHT22;12727;49.934;8.656;2022-12-10T02:11:48;0.50;99.90
24560;DHT22;12727;49.934;8.656;2022-12-10T02:14:22;0.50;99.90
24560;DHT22;12727;49.934;8.656;2022-12-10T02:17:11;0.50;99.90
24560;DHT22;12727;49.934;8.656;2022-12-10T02:20:02;0.50;99.90
24560;DHT22;12727;49.934;8.656;2022-12-10T02:22:33;0.50;99.90
24560;DHT22;12727;49.934;8.656;2022-12-10T02:25:00;0.50;99.90
24560;DHT22;12727;49.934;8.656;2022-12-10T02:27:45;0.50;99.90
24560;DHT22;12727;49.934;8.656;2022-12-10T02:30:12;0.50;99.90
24560;DHT22;12727;49.934;8.656;2022-12-10T02:32:39;0.50;99.90
24560;DHT22;12727;49.934;8.656;2022-12-10T02:35:12;0.50;99.90
24560;DHT22;12727;49.934;8.656;2022-12-10T02:37:48;0.50;99.90
24560;DHT22;12727;49.934;8.656;2022-12-10T02:40:19;0.50;99.90
24560;DHT22;12727;49.934;8.656;2022-12-10T02:42:48;0.50;99.90
24560;DHT22;12727;49.934;8.656;2022-12-10T02:45:16;0.50;99.90
24560;DHT22;12727;49.934;8.656;2022-12-10T02:47:42;0.50;99.90
24560;DHT22;12727;49.934;8.656;2022-12-10T02:50:10;0.50;99.90
24560;DHT22;12727;49.934;8.656;2022-12-10T02:52:36;0.50;99.90
24560;DHT22;12727;49.934;8.656;2022-12-10T02:55:02;0.40;99.90
24560;DHT22;12727;49.934;8.656;2022-12-10T02:57:36;0.40;99.90
24560;DHT22;12727;49.934;8.656;2022-12-10T03:00:05;0.40;99.90
24560;DHT22;12727;49.934;8.656;2022-12-10T03:05:23;0.40;99.90
24560;DHT22;12727;49.934;8.656;2022-12-10T03:13:07;0.40;99.90
24560;DHT22;12727;49.934;8.656;2022-12-10T03:15:38;0.40;99.90
24560;DHT22;12727;49.934;8.656;2022-12-10T03:18:06;0.40;99.90
24560;DHT22;12727;49.934;8.656;2022-12-10T03:20:36;0.30;99.90
24560;DHT22;12727;49.934;8.656;2022-12-10T03:23:04;0.40;99.90
24560;DHT22;12727;49.934;8.656;2022-12-10T03:25:32;0.40;99.90
24560;DHT22;12727;49.934;8.656;2022-12-10T03:27:59;0.40;99.90
24560;DHT22;12727;49.934;8.656;2022-12-10T03:30:25;0.40;99.90
24560;DHT22;12727;49.934;8.656;2022-12-10T03:32:51;0.40;99.90
24560;DHT22;12727;49.934;8.656;2022-12-10T03:35:19;0.30;99.90
24560;DHT22;12727;49.934;8.656;2022-12-10T03:37:45;0.40;99.90
24560;DHT22;12727;49.934;8.656;2022-12-10T03:40:12;0.40;99.90
24560;DHT22;12727;49.934;8.656;2022-12-10T03:42:38;0.30;99.90
24560;DHT22;12727;49.934;8.656;2022-12-10T03:45:04;0.30;99.90
24560;DHT22;12727;49.934;8.656;2022-12-10T03:47:30;0.30;99.90
24560;DHT22;12727;49.934;8.656;2022-12-10T03:49:56;0.30;99.90
24560;DHT22;12727;49.934;8.656;2022-12-10T03:52:21;0.30;99.90
24560;DHT22;12727;49.934;8.656;2022-12-10T03:54:47;0.30;99.90
24560;DHT22;12727;49.934;8.656;2022-12-10T03:57:12;0.30;99.90
24560;DHT22;12727;49.934;8.656;2022-12-10T03:59:38;0.30;99.90
24560;DHT22;12727;49.934;8.656;2022-12-10T04:02:03;0.30;99.90
24560;DHT22;12727;49.934;8.656;2022-12-10T04:04:29;0.40;99.90
24560;DHT22;12727;49.934;8.656;2022-12-10T04:06:55;0.50;99.90
24560;DHT22;12727;49.934;8.656;2022-12-10T04:09:20;0.40;99.90
24560;DHT22;12727;49.934;8.656;2022-12-10T04:11:46;0.50;99.90
24560;DHT22;12727;49.934;8.656;2022-12-10T04:14:12;0.50;99.90
24560;DHT22;12727;49.934;8.656;2022-12-10T04:17:07;0.60;99.90
24560;DHT22;12727;49.934;8.656;2022-12-10T04:19:33;0.70;99.90
24560;DHT22;12727;49.934;8.656;2022-12-10T04:21:58;0.80;99.90
24560;DHT22;12727;49.934;8.656;2022-12-10T04:24:43;0.60;99.90
24560;DHT22;12727;49.934;8.656;2022-12-10T04:27:29;0.50;99.90
24560;DHT22;12727;49.934;8.656;2022-12-10T04:29:56;0.50;99.90
24560;DHT22;12727;49.934;8.656;2022-12-10T04:32:23;0.40;99.90
24560;DHT22;12727;49.934;8.656;2022-12-10T04:34:49;0.40;99.90
24560;DHT22;12727;49.934;8.656;2022-12-10T04:37:15;0.50;99.90
24560;DHT22;12727;49.934;8.656;2022-12-10T04:39:41;0.50;99.90
24560;DHT22;12727;49.934;8.656;2022-12-10T04:42:07;0.50;99.90
24560;DHT22;12727;49.934;8.656;2022-12-10T04:44:33;0.70;99.90
24560;DHT22;12727;49.934;8.656;2022-12-10T04:46:59;0.60;99.90
24560;DHT22;12727;49.934;8.656;2022-12-10T04:49:26;0.50;99.90
24560;DHT22;12727;49.934;8.656;2022-12-10T04:51:52;0.40;99.90
24560;DHT22;12727;49.934;8.656;2022-12-10T04:54:18;0.40;99.90
24560;DHT22;12727;49.934;8.656;2022-12-10T04:56:44;0.40;99.90
24560;DHT22;12727;49.934;8.656;2022-12-10T04:59:10;0.50;99.90
24560;DHT22;12727;49.934;8.656;2022-12-10T05:01:35;0.60;99.90
24560;DHT22;12727;49.934;8.656;2022-12-10T05:04:03;0.80;99.90
24560;DHT22;12727;49.934;8.656;2022-12-10T05:06:30;0.60;99.90
24560;DHT22;12727;49.934;8.656;2022-12-10T05:08:55;0.50;99.90
24560;DHT22;12727;49.934;8.656;2022-12-10T05:11:22;0.40;99.90
24560;DHT22;12727;49.934;8.656;2022-12-10T05:13:48;0.40;99.90
24560;DHT22;12727;49.934;8.656;2022-12-10T05:16:17;0.50;99.90
24560;DHT22;12727;49.934;8.656;2022-12-10T05:18:43;0.60;99.90
24560;DHT22;12727;49.934;8.656;2022-12-10T05:21:14;0.50;99.90
24560;DHT22;12727;49.934;8.656;2022-12-10T05:23:42;0.20;99.90
24560;DHT22;12727;49.934;8.656;2022-12-10T05:26:19;0.20;99.90
24560;DHT22;12727;49.934;8.656;2022-12-10T05:28:51;0.50;99.90
24560;DHT22;12727;49.934;8.656;2022-12-10T05:31:24;0.70;99.90
24560;DHT22;12727;49.934;8.656;2022-12-10T05:33:50;0.80;99.90
24560;DHT22;12727;49.934;8.656;2022-12-10T05:36:18;0.90;99.90
24560;DHT22;12727;49.934;8.656;2022-12-10T05:38:45;0.80;99.90
24560;DHT22;12727;49.934;8.656;2022-12-10T05:41:17;0.50;99.90
24560;DHT22;12727;49.934;8.656;2022-12-10T05:43:44;0.20;99.90
24560;DHT22;12727;49.934;8.656;2022-12-10T05:46:13;0.00;99.90
24560;DHT22;12727;49.934;8.656;2022-12-10T05:48:39;-0.20;99.90
24560;DHT22;12727;49.934;8.656;2022-12-10T05:51:07;-0.30;99.90
24560;DHT22;12727;49.934;8.656;2022-12-10T05:53:34;-0.50;99.90
24560;DHT22;12727;49.934;8.656;2022-12-10T05:56:01;-0.50;99.90
24560;DHT22;12727;49.934;8.656;2022-12-10T05:58:28;-0.60;99.90
24560;DHT22;12727;49.934;8.656;2022-12-10T06:00:55;-0.70;99.90
24560;DHT22;12727;49.934;8.656;2022-12-10T06:03:20;-0.70;99.90
24560;DHT22;12727;49.934;8.656;2022-12-10T06:05:46;-0.70;99.90
24560;DHT22;12727;49.934;8.656;2022-12-10T06:08:11;-0.80;99.90
24560;DHT22;12727;49.934;8.656;2022-12-10T06:10:37;-0.80;99.90
24560;DHT22;12727;49.934;8.656;2022-12-10T06:13:03;-0.80;99.90
24560;DHT22;12727;49.934;8.656;2022-12-10T06:15:29;-0.90;99.90
24560;DHT22;12727;49.934;8.656;2022-12-10T06:17:55;-1.00;99.90
24560;DHT22;12727;49.934;8.656;2022-12-10T06:20:22;-1.10;99.90
24560;DHT22;12727;49.934;8.656;2022-12-10T06:22:47;-1.10;99.90
24560;DHT22;12727;49.934;8.656;2022-12-10T06:25:13;-1.20;99.90
24560;DHT22;12727;49.934;8.656;2022-12-10T06:27:39;-1.30;99.90
24560;DHT22;12727;49.934;8.656;2022-12-10T06:30:05;-1.30;99.90
24560;DHT22;12727;49.934;8.656;2022-12-10T06:32:31;-1.40;99.90
24560;DHT22;12727;49.934;8.656;2022-12-10T06:34:56;-1.50;99.90
24560;DHT22;12727;49.934;8.656;2022-12-10T06:37:22;-1.50;99.90
24560;DHT22;12727;49.934;8.656;2022-12-10T06:39:50;-1.50;99.90
24560;DHT22;12727;49.934;8.656;2022-12-10T06:42:16;-1.60;99.90
24560;DHT22;12727;49.934;8.656;2022-12-10T06:44:42;-1.60;99.90
24560;DHT22;12727;49.934;8.656;2022-12-10T06:47:07;-1.60;99.90
24560;DHT22;12727;49.934;8.656;2022-12-10T06:49:33;-1.60;99.90
24560;DHT22;12727;49.934;8.656;2022-12-10T06:51:58;-1.60;99.90
24560;DHT22;12727;49.934;8.656;2022-12-10T06:54:24;-1.60;99.90
24560;DHT22;12727;49.934;8.656;2022-12-10T06:56:49;-1.60;99.90
24560;DHT22;12727;49.934;8.656;2022-12-10T06:59:15;-1.50;99.90
24560;DHT22;12727;49.934;8.656;2022-12-10T07:01:40;-1.40;99.90
24560;DHT22;12727;49.934;8.656;2022-12-10T07:04:06;-1.30;99.90
24560;DHT22;12727;49.934;8.656;2022-12-10T07:06:33;-1.20;99.90
24560;DHT22;12727;49.934;8.656;2022-12-10T07:08:58;-1.20;99.90
24560;DHT22;12727;49.934;8.656;2022-12-10T07:11:24;-1.20;99.90
24560;DHT22;12727;49.934;8.656;2022-12-10T07:13:50;-1.10;99.90
24560;DHT22;12727;49.934;8.656;2022-12-10T07:16:22;-1.10;99.90
24560;DHT22;12727;49.934;8.656;2022-12-10T07:18:49;-1.00;99.90
24560;DHT22;12727;49.934;8.656;2022-12-10T07:21:35;-1.00;99.90
24560;DHT22;12727;49.934;8.656;2022-12-10T07:24:07;-1.00;99.90
24560;DHT22;12727;49.934;8.656;2022-12-10T07:26:35;-1.00;99.90
24560;DHT22;12727;49.934;8.656;2022-12-10T07:29:02;-1.00;99.90
24560;DHT22;12727;49.934;8.656;2022-12-10T07:31:28;-1.00;99.90
24560;DHT22;12727;49.934;8.656;2022-12-10T07:33:54;-1.00;99.90
24560;DHT22;12727;49.934;8.656;2022-12-10T07:36:21;-1.00;99.90
24560;DHT22;12727;49.934;8.656;2022-12-10T07:38:54;-1.00;99.90
24560;DHT22;12727;49.934;8.656;2022-12-10T07:41:23;-0.90;99.90
24560;DHT22;12727;49.934;8.656;2022-12-10T07:43:49;-0.90;99.90
24560;DHT22;12727;49.934;8.656;2022-12-10T07:46:24;-0.90;99.90
24560;DHT22;12727;49.934;8.656;2022-12-10T07:48:50;-0.80;99.90
24560;DHT22;12727;49.934;8.656;2022-12-10T07:51:17;-0.80;99.90
24560;DHT22;12727;49.934;8.656;2022-12-10T07:53:44;-0.70;99.90
24560;DHT22;12727;49.934;8.656;2022-12-10T07:56:10;-0.60;99.90
24560;DHT22;12727;49.934;8.656;2022-12-10T07:58:37;-0.60;99.90
24560;DHT22;12727;49.934;8.656;2022-12-10T08:01:14;-0.50;99.90
24560;DHT22;12727;49.934;8.656;2022-12-10T08:03:40;-0.40;99.90
24560;DHT22;12727;49.934;8.656;2022-12-10T08:06:12;-0.30;99.90
24560;DHT22;12727;49.934;8.656;2022-12-10T08:08:39;-0.30;99.90
24560;DHT22;12727;49.934;8.656;2022-12-10T08:11:06;-0.20;99.90
24560;DHT22;12727;49.934;8.656;2022-12-10T08:13:32;-0.10;99.90
24560;DHT22;12727;49.934;8.656;2022-12-10T08:16:03;-0.10;99.90
24560;DHT22;12727;49.934;8.656;2022-12-10T08:18:30;0.00;99.90
24560;DHT22;12727;49.934;8.656;2022-12-10T08:20:56;0.00;99.90
24560;DHT22;12727;49.934;8.656;2022-12-10T08:23:22;0.10;99.90
24560;DHT22;12727;49.934;8.656;2022-12-10T08:25:48;0.20;99.90
24560;DHT22;12727;49.934;8.656;2022-12-10T08:28:13;0.40;99.90
24560;DHT22;12727;49.934;8.656;2022-12-10T08:30:39;0.50;99.90
24560;DHT22;12727;49.934;8.656;2022-12-10T08:33:04;0.30;99.90
24560;DHT22;12727;49.934;8.656;2022-12-10T08:35:30;0.30;99.90
24560;DHT22;12727;49.934;8.656;2022-12-10T08:37:55;0.20;99.90
24560;DHT22;12727;49.934;8.656;2022-12-10T08:40:21;0.20;99.90
24560;DHT22;12727;49.934;8.656;2022-12-10T08:42:47;0.20;99.90
24560;DHT22;12727;49.934;8.656;2022-12-10T08:45:12;0.20;99.90
24560;DHT22;12727;49.934;8.656;2022-12-10T08:47:38;0.20;99.90
24560;DHT22;12727;49.934;8.656;2022-12-10T08:50:04;0.10;99.90
24560;DHT22;12727;49.934;8.656;2022-12-10T08:52:30;0.20;99.90
24560;DHT22;12727;49.934;8.656;2022-12-10T08:54:55;0.30;99.90
24560;DHT22;12727;49.934;8.656;2022-12-10T08:57:21;0.30;99.90
24560;DHT22;12727;49.934;8.656;2022-12-10T08:59:47;0.30;99.90
24560;DHT22;12727;49.934;8.656;2022-12-10T09:02:15;0.40;99.90
24560;DHT22;12727;49.934;8.656;2022-12-10T09:04:41;0.40;99.90
24560;DHT22;12727;49.934;8.656;2022-12-10T09:07:08;0.40;99.90
24560;DHT22;12727;49.934;8.656;2022-12-10T09:09:34;0.50;99.90
24560;DHT22;12727;49.934;8.656;2022-12-10T09:11:59;0.60;99.90
24560;DHT22;12727;49.934;8.656;2022-12-10T09:14:27;0.60;99.90
24560;DHT22;12727;49.934;8.656;2022-12-10T09:16:53;0.60;99.90
24560;DHT22;12727;49.934;8.656;2022-12-10T09:19:28;0.70;99.90
24560;DHT22;12727;49.934;8.656;2022-12-10T09:21:53;0.70;99.90
24560;DHT22;12727;49.934;8.656;2022-12-10T09:24:19;0.70;99.90
24560;DHT22;12727;49.934;8.656;2022-12-10T09:26:45;0.80;99.90
24560;DHT22;12727;49.934;8.656;2022-12-10T09:29:12;0.80;99.90
24560;DHT22;12727;49.934;8.656;2022-12-10T09:31:38;0.90;99.90
24560;DHT22;12727;49.934;8.656;2022-12-10T09:34:04;1.00;99.90
24560;DHT22;12727;49.934;8.656;2022-12-10T09:36:30;1.20;99.90
24560;DHT22;12727;49.934;8.656;2022-12-10T09:38:55;1.30;99.90
24560;DHT22;12727;49.934;8.656;2022-12-10T09:46:52;1.50;99.90
24560;DHT22;12727;49.934;8.656;2022-12-10T09:49:33;1.60;99.90
24560;DHT22;12727;49.934;8.656;2022-12-10T09:52:05;1.70;99.90
24560;DHT22;12727;49.934;8.656;2022-12-10T09:54:45;1.80;99.90
24560;DHT22;12727;49.934;8.656;2022-12-10T09:57:21;1.80;99.90
24560;DHT22;12727;49.934;8.656;2022-12-10T09:59:49;1.90;99.90
24560;DHT22;12727;49.934;8.656;2022-12-10T10:02:29;2.30;99.90
24560;DHT22;12727;49.934;8.656;2022-12-10T10:07:41;3.70;99.90
24560;DHT22;12727;49.934;8.656;2022-12-10T10:10:24;4.20;99.90
24560;DHT22;12727;49.934;8.656;2022-12-10T10:12:53;4.10;99.90
24560;DHT22;12727;49.934;8.656;2022-12-10T10:15:24;3.50;99.90
24560;DHT22;12727;49.934;8.656;2022-12-10T10:17:53;3.00;99.90
24560;DHT22;12727;49.934;8.656;2022-12-10T10:20:20;2.60;99.90
24560;DHT22;12727;49.934;8.656;2022-12-10T10:22:46;2.30;99.90
24560;DHT22;12727;49.934;8.656;2022-12-10T10:25:17;2.00;99.90
24560;DHT22;12727;49.934;8.656;2022-12-10T10:27:43;2.10;99.90
24560;DHT22;12727;49.934;8.656;2022-12-10T10:30:20;2.30;99.90
24560;DHT22;12727;49.934;8.656;2022-12-10T10:32:55;2.60;99.90
24560;DHT22;12727;49.934;8.656;2022-12-10T10:35:29;2.60;99.90
24560;DHT22;12727;49.934;8.656;2022-12-10T10:38:01;2.90;99.90
24560;DHT22;12727;49.934;8.656;2022-12-10T10:40:43;2.90;99.90
24560;DHT22;12727;49.934;8.656;2022-12-10T10:43:32;3.10;99.90
24560;DHT22;12727;49.934;8.656;2022-12-10T10:46:01;3.10;99.90
24560;DHT22;12727;49.934;8.656;2022-12-10T10:48:28;3.20;99.90
24560;DHT22;12727;49.934;8.656;2022-12-10T10:53:54;3.20;99.90
24560;DHT22;12727;49.934;8.656;2022-12-10T10:56:37;3.10;99.90
24560;DHT22;12727;49.934;8.656;2022-12-10T10:59:29;3.00;99.90
24560;DHT22;12727;49.934;8.656;2022-12-10T11:02:20;3.00;99.90
24560;DHT22;12727;49.934;8.656;2022-12-10T11:04:50;2.90;99.90
24560;DHT22;12727;49.934;8.656;2022-12-10T11:07:21;3.00;99.90
24560;DHT22;12727;49.934;8.656;2022-12-10T11:09:48;3.10;99.90
24560;DHT22;12727;49.934;8.656;2022-12-10T11:12:38;3.20;99.90
24560;DHT22;12727;49.934;8.656;2022-12-10T11:17:53;3.00;99.90
24560;DHT22;12727;49.934;8.656;2022-12-10T11:20:25;2.80;99.90
24560;DHT22;12727;49.934;8.656;2022-12-10T11:22:52;2.80;99.90
24560;DHT22;12727;49.934;8.656;2022-12-10T11:30:46;2.70;99.90
24560;DHT22;12727;49.934;8.656;2022-12-10T11:41:53;2.70;99.90
24560;DHT22;12727;49.934;8.656;2022-12-10T11:53:01;2.90;99.90
24560;DHT22;12727;49.934;8.656;2022-12-10T11:55:48;3.00;99.90
24560;DHT22;12727;49.934;8.656;2022-12-10T12:03:46;2.90;99.90
24560;DHT22;12727;49.934;8.656;2022-12-10T12:06:38;2.80;99.90
24560;DHT22;12727;49.934;8.656;2022-12-10T12:09:33;2.80;99.90
24560;DHT22;12727;49.934;8.656;2022-12-10T12:15:02;2.80;99.90
24560;DHT22;12727;49.934;8.656;2022-12-10T12:17:40;2.80;99.90
24560;DHT22;12727;49.934;8.656;2022-12-10T12:24:04;3.20;99.90
24560;DHT22;12727;49.934;8.656;2022-12-10T12:27:00;3.10;99.90
24560;DHT22;12727;49.934;8.656;2022-12-10T12:33:00;3.20;99.90
24560;DHT22;12727;49.934;8.656;2022-12-10T12:35:38;3.20;99.90
24560;DHT22;12727;49.934;8.656;2022-12-10T12:43:13;2.90;99.90
24560;DHT22;12727;49.934;8.656;2022-12-10T12:45:48;2.90;99.90
24560;DHT22;12727;49.934;8.656;2022-12-10T12:48:31;2.80;99.90
24560;DHT22;12727;49.934;8.656;2022-12-10T12:51:32;2.70;99.90
24560;DHT22;12727;49.934;8.656;2022-12-10T12:53:58;2.70;99.90
24560;DHT22;12727;49.934;8.656;2022-12-10T13:05:14;3.10;99.90
24560;DHT22;12727;49.934;8.656;2022-12-10T13:11:31;3.10;99.90
24560;DHT22;12727;49.934;8.656;2022-12-10T13:14:11;3.10;99.90
24560;DHT22;12727;49.934;8.656;2022-12-10T13:18:00;3.10;99.90
24560;DHT22;12727;49.934;8.656;2022-12-10T13:25:58;3.00;99.90
24560;DHT22;12727;49.934;8.656;2022-12-10T13:28:50;2.90;99.90
24560;DHT22;12727;49.934;8.656;2022-12-10T13:42:44;3.10;99.90
24560;DHT22;12727;49.934;8.656;2022-12-10T13:45:34;2.90;99.90
24560;DHT22;12727;49.934;8.656;2022-12-10T13:48:28;2.80;99.90
24560;DHT22;12727;49.934;8.656;2022-12-10T13:57:13;2.70;99.90
24560;DHT22;12727;49.934;8.656;2022-12-10T14:00:16;2.70;99.90
24560;DHT22;12727;49.934;8.656;2022-12-10T14:07:56;2.70;99.90
24560;DHT22;12727;49.934;8.656;2022-12-10T14:10:29;2.70;99.90
24560;DHT22;12727;49.934;8.656;2022-12-10T14:12:56;2.60;99.90
24560;DHT22;12727;49.934;8.656;2022-12-10T14:15:24;2.70;99.90
24560;DHT22;12727;49.934;8.656;2022-12-10T14:17:54;2.70;99.90
24560;DHT22;12727;49.934;8.656;2022-12-10T14:20:24;2.70;99.90
24560;DHT22;12727;49.934;8.656;2022-12-10T14:22:52;2.80;99.90
24560;DHT22;12727;49.934;8.656;2022-12-10T14:25:22;2.60;99.90
24560;DHT22;12727;49.934;8.656;2022-12-10T14:27:49;2.70;99.90
24560;DHT22;12727;49.934;8.656;2022-12-10T14:30:17;2.70;99.90
24560;DHT22;12727;49.934;8.656;2022-12-10T14:32:54;2.90;99.90
24560;DHT22;12727;49.934;8.656;2022-12-10T14:35:37;3.10;99.90
24560;DHT22;12727;49.934;8.656;2022-12-10T14:38:03;3.00;99.90
24560;DHT22;12727;49.934;8.656;2022-12-10T14:40:44;2.90;99.90
24560;DHT22;12727;49.934;8.656;2022-12-10T14:43:22;2.80;99.90
24560;DHT22;12727;49.934;8.656;2022-12-10T14:45:53;2.70;99.90
24560;DHT22;12727;49.934;8.656;2022-12-10T14:48:21;2.70;99.90
24560;DHT22;12727;49.934;8.656;2022-12-10T14:50:47;2.70;99.90
24560;DHT22;12727;49.934;8.656;2022-12-10T14:53:28;2.70;99.90
24560;DHT22;12727;49.934;8.656;2022-12-10T14:56:00;2.80;99.90
24560;DHT22;12727;49.934;8.656;2022-12-10T14:58:47;2.80;99.90
24560;DHT22;12727;49.934;8.656;2022-12-10T15:03:45;2.60;99.90
24560;DHT22;12727;49.934;8.656;2022-12-10T15:06:16;2.50;99.90
24560;DHT22;12727;49.934;8.656;2022-12-10T15:08:42;2.50;99.90
24560;DHT22;12727;49.934;8.656;2022-12-10T15:11:16;2.60;99.90
24560;DHT22;12727;49.934;8.656;2022-12-10T15:13:49;2.60;99.90
24560;DHT22;12727;49.934;8.656;2022-12-10T15:16:28;2.60;99.90
24560;DHT22;12727;49.934;8.656;2022-12-10T15:18:54;2.50;99.90
24560;DHT22;12727;49.934;8.656;2022-12-10T15:21:24;2.40;99.90
24560;DHT22;12727;49.934;8.656;2022-12-10T15:23:52;2.30;99.90
24560;DHT22;12727;49.934;8.656;2022-12-10T15:26:33;2.20;99.90
24560;DHT22;12727;49.934;8.656;2022-12-10T15:31:48;2.20;99.90
24560;DHT22;12727;49.934;8.656;2022-12-10T15:34:15;2.30;99.90
24560;DHT22;12727;49.934;8.656;2022-12-10T15:36:53;2.20;99.90
24560;DHT22;12727;49.934;8.656;2022-12-10T15:39:26;2.20;99.90
24560;DHT22;12727;49.934;8.656;2022-12-10T15:44:37;1.80;99.90
24560;DHT22;12727;49.934;8.656;2022-12-10T15:47:24;1.80;99.90
24560;DHT22;12727;49.934;8.656;2022-12-10T15:49:53;1.80;99.90
24560;DHT22;12727;49.934;8.656;2022-12-10T15:52:22;1.80;99.90
24560;DHT22;12727;49.934;8.656;2022-12-10T15:54:50;1.90;99.90
24560;DHT22;12727;49.934;8.656;2022-12-10T15:57:31;1.90;99.90
24560;DHT22;12727;49.934;8.656;2022-12-10T15:59:59;1.90;99.90
24560;DHT22;12727;49.934;8.656;2022-12-10T16:02:42;1.70;99.90
24560;DHT22;12727;49.934;8.656;2022-12-10T16:05:24;1.50;99.90
24560;DHT22;12727;49.934;8.656;2022-12-10T16:07:55;1.40;99.90
24560;DHT22;12727;49.934;8.656;2022-12-10T16:10:22;1.30;99.90
24560;DHT22;12727;49.934;8.656;2022-12-10T16:12:57;1.30;99.90
24560;DHT22;12727;49.934;8.656;2022-12-10T16:15:26;1.30;99.90
24560;DHT22;12727;49.934;8.656;2022-12-10T16:17:52;1.30;99.90
24560;DHT22;12727;49.934;8.656;2022-12-10T16:20:37;1.50;99.90
24560;DHT22;12727;49.934;8.656;2022-12-10T16:23:05;1.40;99.90
24560;DHT22;12727;49.934;8.656;2022-12-10T16:25:32;1.10;99.90
24560;DHT22;12727;49.934;8.656;2022-12-10T16:27:58;0.80;99.90
24560;DHT22;12727;49.934;8.656;2022-12-10T16:30:28;0.70;99.90
24560;DHT22;12727;49.934;8.656;2022-12-10T16:32:54;0.50;99.90
24560;DHT22;12727;49.934;8.656;2022-12-10T16:35:21;0.30;99.90
24560;DHT22;12727;49.934;8.656;2022-12-10T16:37:48;0.30;99.90
24560;DHT22;12727;49.934;8.656;2022-12-10T16:40:16;0.40;99.90
24560;DHT22;12727;49.934;8.656;2022-12-10T16:42:42;0.40;99.90
24560;DHT22;12727;49.934;8.656;2022-12-10T16:45:53;0.30;99.90
24560;DHT22;12727;49.934;8.656;2022-12-10T16:48:20;0.30;99.90
24560;DHT22;12727;49.934;8.656;2022-12-10T16:50:46;0.40;99.90
24560;DHT22;12727;49.934;8.656;2022-12-10T16:55:46;0.80;99.90
24560;DHT22;12727;49.934;8.656;2022-12-10T16:58:13;0.80;99.90
24560;DHT22;12727;49.934;8.656;2022-12-10T17:00:40;1.00;99.90
24560;DHT22;12727;49.934;8.656;2022-12-10T17:03:11;0.70;99.90
24560;DHT22;12727;49.934;8.656;2022-12-10T17:08:17;0.30;99.90
24560;DHT22;12727;49.934;8.656;2022-12-10T17:10:43;0.30;99.90
24560;DHT22;12727;49.934;8.656;2022-12-10T17:13:28;0.10;99.90
24560;DHT22;12727;49.934;8.656;2022-12-10T17:15:55;0.10;99.90
24560;DHT22;12727;49.934;8.656;2022-12-10T17:18:21;0.00;99.90
24560;DHT22;12727;49.934;8.656;2022-12-10T17:20:47;0.10;99.90
24560;DHT22;12727;49.934;8.656;2022-12-10T17:23:13;0.30;99.90
24560;DHT22;12727;49.934;8.656;2022-12-10T17:25:40;0.60;99.90
24560;DHT22;12727;49.934;8.656;2022-12-10T17:28:23;0.80;99.90
24560;DHT22;12727;49.934;8.656;2022-12-10T17:30:49;1.00;99.90
24560;DHT22;12727;49.934;8.656;2022-12-10T17:33:20;0.90;99.90
24560;DHT22;12727;49.934;8.656;2022-12-10T17:35:47;0.60;99.90
24560;DHT22;12727;49.934;8.656;2022-12-10T17:38:16;0.50;99.90
24560;DHT22;12727;49.934;8.656;2022-12-10T17:40:43;0.40;99.90
24560;DHT22;12727;49.934;8.656;2022-12-10T17:43:08;0.30;99.90
24560;DHT22;12727;49.934;8.656;2022-12-10T17:45:37;0.40;99.90
24560;DHT22;12727;49.934;8.656;2022-12-10T17:48:04;0.50;99.90
24560;DHT22;12727;49.934;8.656;2022-12-10T17:50:35;0.70;99.90
24560;DHT22;12727;49.934;8.656;2022-12-10T17:53:04;0.70;99.90
24560;DHT22;12727;49.934;8.656;2022-12-10T17:55:31;0.70;99.90
24560;DHT22;12727;49.934;8.656;2022-12-10T17:57:57;0.50;99.90
24560;DHT22;12727;49.934;8.656;2022-12-10T18:00:25;0.40;99.90
24560;DHT22;12727;49.934;8.656;2022-12-10T18:02:51;0.20;99.90
24560;DHT22;12727;49.934;8.656;2022-12-10T18:05:16;0.10;99.90
24560;DHT22;12727;49.934;8.656;2022-12-10T18:07:42;0.00;99.90
24560;DHT22;12727;49.934;8.656;2022-12-10T18:10:17;-0.10;99.90